sensor_id;sensor_type;location;lat;lon;timestamp;pressure;altitude;pressure_sealevel;temperature;humidity
3294;BME280;1659;51.470;6.770;2023-07-13T00:00:46;101224.25;;;18.07;59.31
3294;BME280;1659;51.470;6.770;2023-07-13T00:03:12;101231.53;;;18.03;59.30
3294;BME280;1659;51.470;6.770;2023-07-13T00:05:40;101245.91;;;18.01;59.42
3294;BME280;1659;51.470;6.770;2023-07-13T00:08:07;101236.34;;;17.95;59.64
3294;BME280;1659;51.470;6.770;2023-07-13T00:10:39;101244.53;;;17.90;59.73
3294;BME280;1659;51.470;6.770;2023-07-13T00:13:06;101237.63;;;17.85;59.83
3294;BME280;1659;51.470;6.770;2023-07-13T00:15:34;101229.78;;;17.80;59.88
3294;BME280;1659;51.470;6.770;2023-07-13T00:18:01;101238.88;;;17.76;60.02
3294;BME280;1659;51.470;6.770;2023-07-13T00:20:27;101240.81;;;17.72;60.15
3294;BME280;1659;51.470;6.770;2023-07-13T00:22:56;101233.75;;;17.70;60.13
3294;BME280;1659;51.470;6.770;2023-07-13T00:25:23;101232.97;;;17.68;60.14
3294;BME280;1659;51.470;6.770;2023-07-13T00:27:51;101232.09;;;17.67;60.32
3294;BME280;1659;51.470;6.770;2023-07-13T00:30:18;101234.84;;;17.66;60.20
3294;BME280;1659;51.470;6.770;2023-07-13T00:32:45;101240.19;;;17.66;60.25
3294;BME280;1659;51.470;6.770;2023-07-13T00:35:13;101228.63;;;17.65;60.29
3294;BME280;1659;51.470;6.770;2023-07-13T00:37:40;101239.38;;;17.64;60.35
3294;BME280;1659;51.470;6.770;2023-07-13T00:40:10;101234.94;;;17.63;60.42
3294;BME280;1659;51.470;6.770;2023-07-13T00:42:37;101236.69;;;17.64;60.44
3294;BME280;1659;51.470;6.770;2023-07-13T00:45:07;101243.91;;;17.62;60.57
3294;BME280;1659;51.470;6.770;2023-07-13T00:47:33;101237.84;;;17.58;60.71
3294;BME280;1659;51.470;6.770;2023-07-13T00:50:00;101237.00;;;17.56;60.89
3294;BME280;1659;51.470;6.770;2023-07-13T00:52:28;101235.34;;;17.53;60.81
3294;BME280;1659;51.470;6.770;2023-07-13T00:54:55;101240.00;;;17.48;61.04
3294;BME280;1659;51.470;6.770;2023-07-13T00:57:24;101234.91;;;17.42;61.20
3294;BME280;1659;51.470;6.770;2023-07-13T00:59:54;101238.72;;;17.35;61.23
3294;BME280;1659;51.470;6.770;2023-07-13T01:02:22;101240.66;;;17.31;61.48
3294;BME280;1659;51.470;6.770;2023-07-13T01:04:49;101239.09;;;17.26;61.48
3294;BME280;1659;51.470;6.770;2023-07-13T01:07:16;101226.81;;;17.22;61.59
3294;BME280;1659;51.470;6.770;2023-07-13T01:09:43;101233.97;;;17.21;61.68
3294;BME280;1659;51.470;6.770;2023-07-13T01:12:10;101237.53;;;17.20;61.79
3294;BME280;1659;51.470;6.770;2023-07-13T01:14:40;101239.47;;;17.16;61.83
3294;BME280;1659;51.470;6.770;2023-07-13T01:17:08;101242.25;;;17.13;61.94
3294;BME280;1659;51.470;6.770;2023-07-13T01:19:37;101245.03;;;17.10;62.10
3294;BME280;1659;51.470;6.770;2023-07-13T01:22:07;101245.03;;;17.10;62.23
3294;BME280;1659;51.470;6.770;2023-07-13T01:24:35;101241.50;;;17.10;62.23
3294;BME280;1659;51.470;6.770;2023-07-13T01:27:03;101234.41;;;17.09;62.37
3294;BME280;1659;51.470;6.770;2023-07-13T01:29:32;101237.00;;;17.10;62.35
3294;BME280;1659;51.470;6.770;2023-07-13T01:31:59;101235.25;;;17.11;62.39
3294;BME280;1659;51.470;6.770;2023-07-13T01:34:26;101230.00;;;17.08;62.47
3294;BME280;1659;51.470;6.770;2023-07-13T01:36:54;101239.00;;;17.05;62.72
3294;BME280;1659;51.470;6.770;2023-07-13T01:39:23;101231.97;;;17.03;62.43
3294;BME280;1659;51.470;6.770;2023-07-13T01:41:49;101248.91;;;17.02;62.75
3294;BME280;1659;51.470;6.770;2023-07-13T01:44:16;101249.06;;;16.98;62.92
3294;BME280;1659;51.470;6.770;2023-07-13T01:46:43;101244.63;;;16.97;62.91
3294;BME280;1659;51.470;6.770;2023-07-13T01:49:09;101243.78;;;16.97;62.88
3294;BME280;1659;51.470;6.770;2023-07-13T01:51:37;101246.56;;;16.94;63.15
3294;BME280;1659;51.470;6.770;2023-07-13T01:54:04;101246.66;;;16.91;63.31
3294;BME280;1659;51.470;6.770;2023-07-13T01:56:32;101248.53;;;16.89;63.44
3294;BME280;1659;51.470;6.770;2023-07-13T01:58:58;101252.09;;;16.88;63.51
3294;BME280;1659;51.470;6.770;2023-07-13T02:01:25;101256.63;;;16.86;63.58
3294;BME280;1659;51.470;6.770;2023-07-13T02:03:51;101251.34;;;16.84;63.81
3294;BME280;1659;51.470;6.770;2023-07-13T02:06:18;101240.78;;;16.81;63.85
3294;BME280;1659;51.470;6.770;2023-07-13T02:08:44;101255.09;;;16.78;64.05
3294;BME280;1659;51.470;6.770;2023-07-13T02:11:11;101249.00;;;16.75;64.22
3294;BME280;1659;51.470;6.770;2023-07-13T02:13:39;101254.44;;;16.72;64.30
3294;BME280;1659;51.470;6.770;2023-07-13T02:16:06;101252.78;;;16.69;64.57
3294;BME280;1659;51.470;6.770;2023-07-13T02:18:32;101257.16;;;16.70;64.59
3294;BME280;1659;51.470;6.770;2023-07-13T02:20:59;101246.63;;;16.67;64.71
3294;BME280;1659;51.470;6.770;2023-07-13T02:23:26;101251.00;;;16.68;64.66
3294;BME280;1659;51.470;6.770;2023-07-13T02:25:54;101251.00;;;16.68;64.68
3294;BME280;1659;51.470;6.770;2023-07-13T02:28:21;101254.63;;;16.67;64.72
3294;BME280;1659;51.470;6.770;2023-07-13T02:30:49;101249.50;;;16.61;64.95
3294;BME280;1659;51.470;6.770;2023-07-13T02:33:16;101257.59;;;16.58;64.99
3294;BME280;1659;51.470;6.770;2023-07-13T02:35:42;101263.13;;;16.53;65.01
3294;BME280;1659;51.470;6.770;2023-07-13T02:38:09;101255.22;;;16.50;65.21
3294;BME280;1659;51.470;6.770;2023-07-13T02:40:36;101258.84;;;16.48;65.40
3294;BME280;1659;51.470;6.770;2023-07-13T02:43:03;101266.06;;;16.46;65.47
3294;BME280;1659;51.470;6.770;2023-07-13T02:45:30;101264.34;;;16.45;65.58
3294;BME280;1659;51.470;6.770;2023-07-13T02:47:58;101262.63;;;16.42;65.61
3294;BME280;1659;51.470;6.770;2023-07-13T02:50:25;101266.19;;;16.42;65.84
3294;BME280;1659;51.470;6.770;2023-07-13T02:52:51;101261.75;;;16.41;65.91
3294;BME280;1659;51.470;6.770;2023-07-13T02:55:18;101262.81;;;16.37;66.06
3294;BME280;1659;51.470;6.770;2023-07-13T02:57:44;101262.91;;;16.34;66.11
3294;BME280;1659;51.470;6.770;2023-07-13T03:00:11;101262.97;;;16.33;66.27
3294;BME280;1659;51.470;6.770;2023-07-13T03:02:38;101268.34;;;16.31;66.19
3294;BME280;1659;51.470;6.770;2023-07-13T03:05:06;101265.78;;;16.28;66.41
3294;BME280;1659;51.470;6.770;2023-07-13T03:07:35;101273.91;;;16.25;66.57
3294;BME280;1659;51.470;6.770;2023-07-13T03:10:02;101267.78;;;16.21;66.62
3294;BME280;1659;51.470;6.770;2023-07-13T03:12:29;101274.97;;;16.19;66.74
3294;BME280;1659;51.470;6.770;2023-07-13T03:14:55;101279.44;;;16.19;67.00
3294;BME280;1659;51.470;6.770;2023-07-13T03:17:25;101272.34;;;16.18;66.96
3294;BME280;1659;51.470;6.770;2023-07-13T03:19:52;101268.84;;;16.16;67.00
3294;BME280;1659;51.470;6.770;2023-07-13T03:22:21;101274.09;;;16.19;67.03
3294;BME280;1659;51.470;6.770;2023-07-13T03:24:47;101270.38;;;16.23;67.22
3294;BME280;1659;51.470;6.770;2023-07-13T03:27:15;101280.09;;;16.26;67.23
3294;BME280;1659;51.470;6.770;2023-07-13T03:29:41;101284.44;;;16.28;67.32
3294;BME280;1659;51.470;6.770;2023-07-13T03:32:08;101279.88;;;16.32;67.49
3294;BME280;1659;51.470;6.770;2023-07-13T03:34:35;101276.13;;;16.37;67.40
3294;BME280;1659;51.470;6.770;2023-07-13T03:37:01;101282.19;;;16.42;67.35
3294;BME280;1659;51.470;6.770;2023-07-13T03:39:29;101282.94;;;16.46;67.40
3294;BME280;1659;51.470;6.770;2023-07-13T03:41:56;101291.66;;;16.51;67.25
3294;BME280;1659;51.470;6.770;2023-07-13T03:44:22;101293.38;;;16.52;67.25
3294;BME280;1659;51.470;6.770;2023-07-13T03:46:49;101296.91;;;16.53;67.32
3294;BME280;1659;51.470;6.770;2023-07-13T03:49:15;101302.16;;;16.56;67.21
3294;BME280;1659;51.470;6.770;2023-07-13T03:51:42;101302.25;;;16.53;67.48
3294;BME280;1659;51.470;6.770;2023-07-13T03:54:09;101298.78;;;16.51;67.71
3294;BME280;1659;51.470;6.770;2023-07-13T03:56:36;101304.13;;;16.51;67.81
3294;BME280;1659;51.470;6.770;2023-07-13T03:59:03;101296.88;;;16.54;67.91
3294;BME280;1659;51.470;6.770;2023-07-13T04:01:30;101307.50;;;16.56;67.82
3294;BME280;1659;51.470;6.770;2023-07-13T04:03:57;101296.88;;;16.54;67.93
3294;BME280;1659;51.470;6.770;2023-07-13T04:06:26;101299.72;;;16.50;68.05
3294;BME280;1659;51.470;6.770;2023-07-13T04:08:56;101299.88;;;16.45;68.22
3294;BME280;1659;51.470;6.770;2023-07-13T04:11:24;101305.16;;;16.47;68.21
3294;BME280;1659;51.470;6.770;2023-07-13T04:13:53;101308.88;;;16.42;68.49
3294;BME280;1659;51.470;6.770;2023-07-13T04:16:20;101322.22;;;16.42;68.52
3294;BME280;1659;51.470;6.770;2023-07-13T04:18:48;101324.75;;;16.46;68.67
3294;BME280;1659;51.470;6.770;2023-07-13T04:21:16;101322.88;;;16.48;68.62
3294;BME280;1659;51.470;6.770;2023-07-13T04:23:43;101327.22;;;16.52;68.78
3294;BME280;1659;51.470;6.770;2023-07-13T04:26:09;101327.03;;;16.56;68.69
3294;BME280;1659;51.470;6.770;2023-07-13T04:28:36;101331.34;;;16.60;68.80
3294;BME280;1659;51.470;6.770;2023-07-13T04:31:04;101327.75;;;16.61;68.75
3294;BME280;1659;51.470;6.770;2023-07-13T04:33:32;101327.75;;;16.61;68.79
3294;BME280;1659;51.470;6.770;2023-07-13T04:35:59;101325.03;;;16.63;68.85
3294;BME280;1659;51.470;6.770;2023-07-13T04:38:28;101333.78;;;16.67;68.79
3294;BME280;1659;51.470;6.770;2023-07-13T04:40:56;101336.41;;;16.68;68.81
3294;BME280;1659;51.470;6.770;2023-07-13T04:43:23;101331.88;;;16.70;68.75
3294;BME280;1659;51.470;6.770;2023-07-13T04:45:50;101332.84;;;16.69;68.82
3294;BME280;1659;51.470;6.770;2023-07-13T04:48:18;101331.19;;;16.65;69.03
3294;BME280;1659;51.470;6.770;2023-07-13T04:50:45;101329.44;;;16.64;69.04
3294;BME280;1659;51.470;6.770;2023-07-13T04:53:12;101332.22;;;16.61;69.19
3294;BME280;1659;51.470;6.770;2023-07-13T04:55:39;101333.16;;;16.60;69.36
3294;BME280;1659;51.470;6.770;2023-07-13T04:58:06;101321.66;;;16.58;69.45
3294;BME280;1659;51.470;6.770;2023-07-13T05:00:33;101339.69;;;16.51;69.92
3294;BME280;1659;51.470;6.770;2023-07-13T05:03:00;101321.13;;;16.48;70.00
3294;BME280;1659;51.470;6.770;2023-07-13T05:05:28;101338.88;;;16.48;70.15
3294;BME280;1659;51.470;6.770;2023-07-13T05:07:54;101337.84;;;16.53;70.04
3294;BME280;1659;51.470;6.770;2023-07-13T05:10:21;101336.84;;;16.56;70.22
3294;BME280;1659;51.470;6.770;2023-07-13T05:12:48;101348.19;;;16.63;70.05
3294;BME280;1659;51.470;6.770;2023-07-13T05:15:15;101343.69;;;16.63;70.23
3294;BME280;1659;51.470;6.770;2023-07-13T05:17:46;101351.66;;;16.65;70.22
3294;BME280;1659;51.470;6.770;2023-07-13T05:20:12;101347.97;;;16.69;70.31
3294;BME280;1659;51.470;6.770;2023-07-13T05:22:40;101345.22;;;16.70;70.25
3294;BME280;1659;51.470;6.770;2023-07-13T05:25:07;101349.59;;;16.73;70.37
3294;BME280;1659;51.470;6.770;2023-07-13T05:27:34;101352.97;;;16.78;70.40
3294;BME280;1659;51.470;6.770;2023-07-13T05:30:01;101367.19;;;16.78;70.46
3294;BME280;1659;51.470;6.770;2023-07-13T05:32:28;101368.06;;;16.79;70.68
3294;BME280;1659;51.470;6.770;2023-07-13T05:34:54;101371.72;;;16.76;70.93
3294;BME280;1659;51.470;6.770;2023-07-13T05:37:21;101373.38;;;16.79;71.02
3294;BME280;1659;51.470;6.770;2023-07-13T05:39:49;101375.94;;;16.84;70.95
3294;BME280;1659;51.470;6.770;2023-07-13T05:42:16;101376.72;;;16.87;70.98
3294;BME280;1659;51.470;6.770;2023-07-13T05:44:42;101380.25;;;16.88;71.02
3294;BME280;1659;51.470;6.770;2023-07-13T05:47:09;101381.78;;;16.95;70.90
3294;BME280;1659;51.470;6.770;2023-07-13T05:49:38;101380.22;;;17.62;69.62
3294;BME280;1659;51.470;6.770;2023-07-13T05:52:05;101380.72;;;18.17;67.97
3294;BME280;1659;51.470;6.770;2023-07-13T05:54:32;101381.97;;;18.08;68.39
3294;BME280;1659;51.470;6.770;2023-07-13T05:57:00;101377.75;;;18.03;68.82
3294;BME280;1659;51.470;6.770;2023-07-13T05:59:26;101386.13;;;17.93;69.14
3294;BME280;1659;51.470;6.770;2023-07-13T06:01:53;101399.72;;;17.87;69.25
3294;BME280;1659;51.470;6.770;2023-07-13T06:04:19;101393.84;;;18.01;69.27
3294;BME280;1659;51.470;6.770;2023-07-13T06:06:46;101403.53;;;18.26;68.66
3294;BME280;1659;51.470;6.770;2023-07-13T06:09:12;101401.13;;;18.20;68.83
3294;BME280;1659;51.470;6.770;2023-07-13T06:11:39;101399.66;;;18.13;69.24
3294;BME280;1659;51.470;6.770;2023-07-13T06:14:07;101403.75;;;18.21;69.16
3294;BME280;1659;51.470;6.770;2023-07-13T06:16:34;101404.72;;;18.19;69.08
3294;BME280;1659;51.470;6.770;2023-07-13T06:19:00;101406.81;;;18.12;69.28
3294;BME280;1659;51.470;6.770;2023-07-13T06:21:27;101409.34;;;18.15;69.41
3294;BME280;1659;51.470;6.770;2023-07-13T06:23:55;101410.34;;;18.13;69.31
3294;BME280;1659;51.470;6.770;2023-07-13T06:26:21;101409.50;;;18.12;69.35
3294;BME280;1659;51.470;6.770;2023-07-13T06:28:48;101417.56;;;18.10;69.25
3294;BME280;1659;51.470;6.770;2023-07-13T06:31:16;101423.16;;;18.04;69.22
3294;BME280;1659;51.470;6.770;2023-07-13T06:33:43;101428.88;;;17.95;69.84
3294;BME280;1659;51.470;6.770;2023-07-13T06:36:10;101428.81;;;17.97;69.77
3294;BME280;1659;51.470;6.770;2023-07-13T06:38:37;101426.78;;;18.03;69.75
3294;BME280;1659;51.470;6.770;2023-07-13T06:41:05;101422.97;;;18.09;69.69
3294;BME280;1659;51.470;6.770;2023-07-13T06:43:32;101420.72;;;18.20;69.70
3294;BME280;1659;51.470;6.770;2023-07-13T06:45:59;101426.25;;;18.38;69.25
3294;BME280;1659;51.470;6.770;2023-07-13T06:48:27;101423.53;;;18.61;69.13
3294;BME280;1659;51.470;6.770;2023-07-13T06:50:54;101419.91;;;18.84;68.45
3294;BME280;1659;51.470;6.770;2023-07-13T06:53:21;101427.94;;;19.05;68.00
3294;BME280;1659;51.470;6.770;2023-07-13T06:55:49;101430.09;;;19.17;67.63
3294;BME280;1659;51.470;6.770;2023-07-13T06:58:17;101441.13;;;19.10;67.75
3294;BME280;1659;51.470;6.770;2023-07-13T07:00:43;101437.84;;;19.03;68.19
3294;BME280;1659;51.470;6.770;2023-07-13T07:03:10;101438.13;;;18.97;68.15
3294;BME280;1659;51.470;6.770;2023-07-13T07:05:39;101438.28;;;18.92;68.04
3294;BME280;1659;51.470;6.770;2023-07-13T07:08:06;101438.50;;;18.88;68.23
3294;BME280;1659;51.470;6.770;2023-07-13T07:10:34;101447.22;;;18.93;68.29
3294;BME280;1659;51.470;6.770;2023-07-13T07:13:01;101443.88;;;19.08;68.17
3294;BME280;1659;51.470;6.770;2023-07-13T07:15:28;101440.69;;;19.39;67.28
3294;BME280;1659;51.470;6.770;2023-07-13T07:17:55;101451.75;;;19.52;67.24
3294;BME280;1659;51.470;6.770;2023-07-13T07:20:21;101445.03;;;19.62;66.94
3294;BME280;1659;51.470;6.770;2023-07-13T07:22:49;101447.97;;;19.77;66.51
3294;BME280;1659;51.470;6.770;2023-07-13T07:25:16;101449.06;;;19.92;65.95
3294;BME280;1659;51.470;6.770;2023-07-13T07:27:43;101454.41;;;19.92;65.96
3294;BME280;1659;51.470;6.770;2023-07-13T07:30:10;101447.09;;;19.95;65.70
3294;BME280;1659;51.470;6.770;2023-07-13T07:32:37;101446.22;;;19.95;65.58
3294;BME280;1659;51.470;6.770;2023-07-13T07:35:06;101454.50;;;19.90;65.71
3294;BME280;1659;51.470;6.770;2023-07-13T07:37:33;101457.09;;;19.92;65.79
3294;BME280;1659;51.470;6.770;2023-07-13T07:40:01;101456.38;;;19.88;66.07
3294;BME280;1659;51.470;6.770;2023-07-13T07:42:28;101451.00;;;19.88;66.03
3294;BME280;1659;51.470;6.770;2023-07-13T07:44:54;101450.72;;;19.94;65.95
3294;BME280;1659;51.470;6.770;2023-07-13T07:47:21;101453.34;;;19.96;65.93
3294;BME280;1659;51.470;6.770;2023-07-13T07:49:48;101451.47;;;19.98;65.84
3294;BME280;1659;51.470;6.770;2023-07-13T07:52:15;101459.94;;;19.89;65.72
3294;BME280;1659;51.470;6.770;2023-07-13T07:54:41;101448.75;;;19.79;65.85
3294;BME280;1659;51.470;6.770;2023-07-13T07:57:09;101453.94;;;19.84;66.00
3294;BME280;1659;51.470;6.770;2023-07-13T07:59:36;101451.16;;;20.04;65.29
3294;BME280;1659;51.470;6.770;2023-07-13T08:02:03;101442.22;;;20.23;65.02
3294;BME280;1659;51.470;6.770;2023-07-13T08:04:30;101451.97;;;20.62;64.15
3294;BME280;1659;51.470;6.770;2023-07-13T08:06:56;101450.50;;;20.73;63.74
3294;BME280;1659;51.470;6.770;2023-07-13T08:09:23;101447.88;;;20.72;63.42
3294;BME280;1659;51.470;6.770;2023-07-13T08:11:49;101451.75;;;20.66;63.40
3294;BME280;1659;51.470;6.770;2023-07-13T08:14:18;101442.56;;;20.70;63.46
3294;BME280;1659;51.470;6.770;2023-07-13T08:16:45;101442.69;;;20.86;62.93
3294;BME280;1659;51.470;6.770;2023-07-13T08:19:12;101435.13;;;21.28;61.86
3294;BME280;1659;51.470;6.770;2023-07-13T08:21:38;101437.69;;;21.64;61.05
3294;BME280;1659;51.470;6.770;2023-07-13T08:24:05;101439.31;;;22.16;59.69
3294;BME280;1659;51.470;6.770;2023-07-13T08:26:32;101435.63;;;22.65;58.88
3294;BME280;1659;51.470;6.770;2023-07-13T08:28:58;101438.53;;;22.76;58.73
3294;BME280;1659;51.470;6.770;2023-07-13T08:31:26;101447.59;;;22.75;59.03
3294;BME280;1659;51.470;6.770;2023-07-13T08:33:53;101436.34;;;23.13;58.27
3294;BME280;1659;51.470;6.770;2023-07-13T08:36:19;101437.88;;;23.03;57.40
3294;BME280;1659;51.470;6.770;2023-07-13T08:38:48;101440.13;;;22.80;58.02
3294;BME280;1659;51.470;6.770;2023-07-13T08:41:16;101435.28;;;23.02;57.62
3294;BME280;1659;51.470;6.770;2023-07-13T08:43:47;101433.44;;;23.02;57.40
3294;BME280;1659;51.470;6.770;2023-07-13T08:46:18;101440.75;;;23.00;58.02
3294;BME280;1659;51.470;6.770;2023-07-13T08:48:49;101443.72;;;22.95;57.84
3294;BME280;1659;51.470;6.770;2023-07-13T08:51:26;101433.81;;;22.66;58.25
3294;BME280;1659;51.470;6.770;2023-07-13T08:54:01;101430.75;;;22.72;58.34
3294;BME280;1659;51.470;6.770;2023-07-13T08:56:29;101420.44;;;22.94;57.86
3294;BME280;1659;51.470;6.770;2023-07-13T08:59:00;101412.72;;;23.47;56.67
3294;BME280;1659;51.470;6.770;2023-07-13T09:01:33;101423.03;;;24.25;55.61
3294;BME280;1659;51.470;6.770;2023-07-13T09:04:08;101416.88;;;25.03;54.30
3294;BME280;1659;51.470;6.770;2023-07-13T09:06:45;101418.25;;;24.83;54.10
3294;BME280;1659;51.470;6.770;2023-07-13T09:09:22;101429.56;;;24.63;54.07
3294;BME280;1659;51.470;6.770;2023-07-13T09:11:58;101441.31;;;24.35;54.66
3294;BME280;1659;51.470;6.770;2023-07-13T09:14:37;101435.59;;;24.12;55.25
3294;BME280;1659;51.470;6.770;2023-07-13T09:17:12;101436.09;;;24.04;55.08
3294;BME280;1659;51.470;6.770;2023-07-13T09:19:41;101440.66;;;24.31;54.80
3294;BME280;1659;51.470;6.770;2023-07-13T09:22:13;101429.97;;;24.29;54.99
3294;BME280;1659;51.470;6.770;2023-07-13T09:24:55;101430.97;;;24.68;54.13
3294;BME280;1659;51.470;6.770;2023-07-13T09:27:29;101445.97;;;25.00;53.26
3294;BME280;1659;51.470;6.770;2023-07-13T09:30:02;101435.47;;;24.95;52.98
3294;BME280;1659;51.470;6.770;2023-07-13T09:32:31;101434.56;;;25.35;52.23
3294;BME280;1659;51.470;6.770;2023-07-13T09:35:00;101432.69;;;25.22;51.80
3294;BME280;1659;51.470;6.770;2023-07-13T09:37:31;101440.00;;;24.82;52.69
3294;BME280;1659;51.470;6.770;2023-07-13T09:40:01;101445.75;;;24.90;52.42
3294;BME280;1659;51.470;6.770;2023-07-13T09:42:31;101433.44;;;25.12;52.20
3294;BME280;1659;51.470;6.770;2023-07-13T09:45:00;101435.81;;;25.03;51.06
3294;BME280;1659;51.470;6.770;2023-07-13T09:47:30;101441.97;;;24.65;51.87
3294;BME280;1659;51.470;6.770;2023-07-13T09:50:00;101446.44;;;23.98;53.16
3294;BME280;1659;51.470;6.770;2023-07-13T09:52:29;101453.94;;;23.49;53.80
3294;BME280;1659;51.470;6.770;2023-07-13T09:55:23;101450.06;;;23.10;54.31
3294;BME280;1659;51.470;6.770;2023-07-13T09:57:50;101448.25;;;22.95;54.94
3294;BME280;1659;51.470;6.770;2023-07-13T10:00:22;101447.56;;;23.22;54.72
3294;BME280;1659;51.470;6.770;2023-07-13T10:02:59;101450.13;;;23.82;53.66
3294;BME280;1659;51.470;6.770;2023-07-13T10:05:27;101442.44;;;24.18;52.97
3294;BME280;1659;51.470;6.770;2023-07-13T10:07:55;101452.59;;;24.00;52.99
3294;BME280;1659;51.470;6.770;2023-07-13T10:10:22;101455.84;;;24.19;52.64
3294;BME280;1659;51.470;6.770;2023-07-13T10:12:49;101449.38;;;24.49;52.16
3294;BME280;1659;51.470;6.770;2023-07-13T10:15:21;101463.50;;;24.40;51.78
3294;BME280;1659;51.470;6.770;2023-07-13T10:17:52;101457.72;;;23.90;52.11
3294;BME280;1659;51.470;6.770;2023-07-13T10:20:20;101455.19;;;23.87;52.43
3294;BME280;1659;51.470;6.770;2023-07-13T10:22:51;101452.56;;;24.14;52.25
3294;BME280;1659;51.470;6.770;2023-07-13T10:25:22;101452.13;;;24.35;51.82
3294;BME280;1659;51.470;6.770;2023-07-13T10:27:52;101461.59;;;24.27;51.83
3294;BME280;1659;51.470;6.770;2023-07-13T10:30:22;101456.28;;;24.53;51.35
3294;BME280;1659;51.470;6.770;2023-07-13T10:32:51;101447.25;;;25.07;50.68
3294;BME280;1659;51.470;6.770;2023-07-13T10:35:20;101458.69;;;25.25;50.18
3294;BME280;1659;51.470;6.770;2023-07-13T10:37:53;101453.13;;;25.01;50.18
3294;BME280;1659;51.470;6.770;2023-07-13T10:40:27;101463.03;;;25.28;49.42
3294;BME280;1659;51.470;6.770;2023-07-13T10:42:56;101454.41;;;25.21;49.13
3294;BME280;1659;51.470;6.770;2023-07-13T10:45:25;101453.16;;;25.27;48.82
3294;BME280;1659;51.470;6.770;2023-07-13T10:47:54;101458.69;;;25.38;48.38
3294;BME280;1659;51.470;6.770;2023-07-13T10:50:24;101449.22;;;25.18;48.51
3294;BME280;1659;51.470;6.770;2023-07-13T10:52:54;101439.69;;;24.99;48.33
3294;BME280;1659;51.470;6.770;2023-07-13T10:55:37;101448.22;;;24.93;48.54
3294;BME280;1659;51.470;6.770;2023-07-13T10:58:12;101463.84;;;25.15;48.52
3294;BME280;1659;51.470;6.770;2023-07-13T11:00:47;101453.47;;;25.73;47.25
3294;BME280;1659;51.470;6.770;2023-07-13T11:03:17;101461.63;;;26.23;46.39
3294;BME280;1659;51.470;6.770;2023-07-13T11:05:48;101458.44;;;26.53;45.82
3294;BME280;1659;51.470;6.770;2023-07-13T11:08:31;101468.41;;;27.01;45.17
3294;BME280;1659;51.470;6.770;2023-07-13T11:10:58;101458.50;;;27.24;44.29
3294;BME280;1659;51.470;6.770;2023-07-13T11:13:57;101460.19;;;27.25;44.05
3294;BME280;1659;51.470;6.770;2023-07-13T11:16:34;101450.59;;;27.21;44.51
3294;BME280;1659;51.470;6.770;2023-07-13T11:19:27;101450.13;;;27.27;43.22
3294;BME280;1659;51.470;6.770;2023-07-13T11:22:11;101451.88;;;27.40;43.16
3294;BME280;1659;51.470;6.770;2023-07-13T11:24:56;101462.97;;;27.48;42.76
3294;BME280;1659;51.470;6.770;2023-07-13T11:27:42;101452.34;;;26.87;42.40
3294;BME280;1659;51.470;6.770;2023-07-13T11:30:32;101432.72;;;26.35;42.42
3294;BME280;1659;51.470;6.770;2023-07-13T11:33:14;101438.78;;;26.38;42.80
3294;BME280;1659;51.470;6.770;2023-07-13T11:35:49;101442.72;;;26.59;42.64
3294;BME280;1659;51.470;6.770;2023-07-13T11:38:19;101434.50;;;26.96;42.37
3294;BME280;1659;51.470;6.770;2023-07-13T11:40:48;101421.28;;;27.38;41.93
3294;BME280;1659;51.470;6.770;2023-07-13T11:43:16;101433.47;;;27.66;41.27
3294;BME280;1659;51.470;6.770;2023-07-13T11:45:44;101426.81;;;27.81;41.10
3294;BME280;1659;51.470;6.770;2023-07-13T11:48:23;101428.06;;;27.55;40.35
3294;BME280;1659;51.470;6.770;2023-07-13T11:50:52;101421.16;;;27.39;40.61
3294;BME280;1659;51.470;6.770;2023-07-13T11:53:20;101429.53;;;27.59;40.34
3294;BME280;1659;51.470;6.770;2023-07-13T11:55:48;101427.31;;;27.41;40.00
3294;BME280;1659;51.470;6.770;2023-07-13T11:58:19;101426.72;;;27.49;39.93
3294;BME280;1659;51.470;6.770;2023-07-13T12:00:47;101441.63;;;27.66;39.58
3294;BME280;1659;51.470;6.770;2023-07-13T12:03:18;101426.09;;;27.68;39.13
3294;BME280;1659;51.470;6.770;2023-07-13T12:05:55;101426.69;;;27.38;39.44
3294;BME280;1659;51.470;6.770;2023-07-13T12:08:25;101422.41;;;27.00;40.03
3294;BME280;1659;51.470;6.770;2023-07-13T12:11:06;101428.31;;;26.58;40.33
3294;BME280;1659;51.470;6.770;2023-07-13T12:13:38;101435.91;;;26.29;40.54
3294;BME280;1659;51.470;6.770;2023-07-13T12:16:12;101431.34;;;26.29;40.67
3294;BME280;1659;51.470;6.770;2023-07-13T12:18:42;101432.34;;;26.28;40.87
3294;BME280;1659;51.470;6.770;2023-07-13T12:21:13;101430.34;;;26.06;41.01
3294;BME280;1659;51.470;6.770;2023-07-13T12:23:43;101429.41;;;25.81;41.36
3294;BME280;1659;51.470;6.770;2023-07-13T12:26:12;101425.13;;;25.40;42.15
3294;BME280;1659;51.470;6.770;2023-07-13T12:28:45;101426.38;;;25.09;42.36
3294;BME280;1659;51.470;6.770;2023-07-13T12:31:31;101431.44;;;24.75;42.91
3294;BME280;1659;51.470;6.770;2023-07-13T12:34:00;101429.50;;;24.50;43.49
3294;BME280;1659;51.470;6.770;2023-07-13T12:36:29;101431.81;;;24.29;43.87
3294;BME280;1659;51.470;6.770;2023-07-13T12:39:01;101437.44;;;24.11;43.85
3294;BME280;1659;51.470;6.770;2023-07-13T12:41:31;101444.53;;;23.85;44.37
3294;BME280;1659;51.470;6.770;2023-07-13T12:43:59;101442.78;;;23.55;44.99
3294;BME280;1659;51.470;6.770;2023-07-13T12:46:26;101444.00;;;23.35;45.42
3294;BME280;1659;51.470;6.770;2023-07-13T12:48:57;101453.13;;;23.18;45.74
3294;BME280;1659;51.470;6.770;2023-07-13T12:51:25;101453.94;;;23.05;45.95
3294;BME280;1659;51.470;6.770;2023-07-13T12:53:57;101452.88;;;22.93;46.21
3294;BME280;1659;51.470;6.770;2023-07-13T12:56:26;101462.16;;;22.87;46.45
3294;BME280;1659;51.470;6.770;2023-07-13T12:58:57;101474.09;;;22.83;46.75
3294;BME280;1659;51.470;6.770;2023-07-13T13:01:26;101477.50;;;22.71;47.28
3294;BME280;1659;51.470;6.770;2023-07-13T13:03:54;101491.16;;;22.52;47.93
3294;BME280;1659;51.470;6.770;2023-07-13T13:06:24;101478.78;;;22.33;48.92
3294;BME280;1659;51.470;6.770;2023-07-13T13:08:52;101482.66;;;22.28;49.60
3294;BME280;1659;51.470;6.770;2023-07-13T13:11:21;101484.06;;;22.35;49.83
3294;BME280;1659;51.470;6.770;2023-07-13T13:13:48;101490.16;;;22.54;49.83
3294;BME280;1659;51.470;6.770;2023-07-13T13:16:20;101484.59;;;22.88;49.84
3294;BME280;1659;51.470;6.770;2023-07-13T13:18:48;101472.09;;;23.17;49.44